Time;durP1;ratioP1;P1;durP2;ratioP2;P2;SDS_P1;SDS_P2;PMS_P1;PMS_P2;Temp;Humidity;BMP_temperature;BMP_pressure;BME280_temperature;BME280_humidity;BME280_pressure;Samples;Min_cycle;Max_cycle;Signal;HPM_P1;HPM_P2
2021/05/10 00:02:09;;;;;;;2.43;1.20;;;20.10;99.90;;;;;;4819941;29;20190;-83
2021/05/10 00:04:35;;;;;;;4.50;1.30;;;20.10;99.90;;;;;;4805602;29;20214;-82
2021/05/10 00:07:00;;;;;;;4.43;1.90;;;20.10;99.90;;;;;;4805127;29;20220;-81
2021/05/10 00:09:26;;;;;;;2.90;1.40;;;20.00;99.90;;;;;;4804542;29;20576;-83
2021/05/10 00:11:52;;;;;;;8.23;1.73;;;20.00;99.90;;;;;;4805574;29;20697;-81
2021/05/10 00:14:27;;;;;;;2.50;1.70;;;20.10;99.90;;;;;;4808377;29;20186;-82
2021/05/10 00:16:52;;;;;;;1.87;1.23;;;20.10;99.90;;;;;;4809270;29;20185;-80
2021/05/10 00:19:18;;;;;;;3.90;1.50;;;20.00;99.90;;;;;;4823120;29;20417;-82
2021/05/10 00:21:43;;;;;;;2.57;1.50;;;20.10;99.90;;;;;;4808990;29;20213;-83
2021/05/10 00:24:09;;;;;;;1.93;1.10;;;20.00;99.90;;;;;;4822677;29;20217;-81
2021/05/10 00:26:35;;;;;;;3.23;1.77;;;20.10;99.90;;;;;;4809156;29;20221;-81
2021/05/10 00:29:00;;;;;;;2.30;1.53;;;20.10;99.90;;;;;;4809144;29;20239;-81
2021/05/10 00:31:26;;;;;;;4.53;1.40;;;20.10;99.90;;;;;;4809076;29;20228;-81
2021/05/10 00:33:52;;;;;;;3.43;1.57;;;20.20;99.90;;;;;;4809234;29;20190;-81
2021/05/10 00:36:17;;;;;;;2.70;1.50;;;20.20;99.90;;;;;;4808467;29;20210;-84
2021/05/10 00:38:43;;;;;;;2.60;1.40;;;20.20;99.90;;;;;;4822131;29;20632;-81
2021/05/10 00:41:09;;;;;;;1.50;1.13;;;20.20;99.90;;;;;;4808840;29;20277;-84
2021/05/10 00:43:34;;;;;;;1.87;1.23;;;20.30;99.90;;;;;;4808948;29;20201;-83
2021/05/10 00:46:00;;;;;;;3.00;1.33;;;20.30;99.90;;;;;;4808401;29;20298;-85
2021/05/10 00:48:26;;;;;;;1.30;1.20;;;20.40;99.90;;;;;;4808753;29;20579;-84
2021/05/10 00:50:51;;;;;;;4.00;1.37;;;20.40;99.90;;;;;;4808767;29;20224;-79
2021/05/10 00:53:17;;;;;;;4.20;1.30;;;20.40;99.90;;;;;;4808972;29;20608;-82
2021/05/10 00:55:42;;;;;;;4.60;1.63;;;20.40;99.90;;;;;;4808275;29;20901;-82
2021/05/10 00:58:08;;;;;;;2.77;1.60;;;20.30;99.90;;;;;;4808688;29;20235;-82
2021/05/10 01:00:38;;;;;;;3.63;1.27;;;20.30;99.90;;;;;;4808792;29;20201;-82
2021/05/10 01:03:04;;;;;;;4.90;1.60;;;20.40;99.90;;;;;;4808604;29;20675;-81
2021/05/10 01:05:30;;;;;;;5.37;2.10;;;20.40;99.90;;;;;;4808076;29;20952;-81
2021/05/10 01:07:56;;;;;;;3.80;1.27;;;20.30;99.90;;;;;;4808607;29;20431;-84
2021/05/10 01:10:24;;;;;;;2.37;1.57;;;20.30;99.90;;;;;;4807662;29;20210;-82
2021/05/10 01:12:50;;;;;;;3.50;1.40;;;20.40;99.90;;;;;;4808355;29;20189;-82
2021/05/10 01:15:17;;;;;;;1.57;1.40;;;20.60;99.90;;;;;;4806777;29;20811;-81
2021/05/10 01:17:45;;;;;;;2.73;1.43;;;20.60;99.90;;;;;;4808554;29;20190;-81
2021/05/10 01:20:13;;;;;;;3.53;1.37;;;20.50;99.90;;;;;;4822300;29;20430;-82
2021/05/10 01:22:46;;;;;;;1.70;1.17;;;20.60;99.90;;;;;;4808021;29;20420;-80
2021/05/10 01:25:32;;;;;;;1.73;1.17;;;20.60;99.90;;;;;;4807488;29;20518;-82
2021/05/10 01:27:59;;;;;;;2.03;1.40;;;20.80;99.90;;;;;;4808011;29;20489;-79
2021/05/10 01:30:26;;;;;;;3.27;1.80;;;20.90;99.90;;;;;;4807882;29;20486;-82
2021/05/10 01:32:54;;;;;;;2.13;1.63;;;21.00;99.90;;;;;;4808178;29;20424;-82
2021/05/10 01:35:23;;;;;;;4.13;1.57;;;21.10;99.90;;;;;;4807542;29;20443;-82
2021/05/10 01:37:49;;;;;;;2.20;1.13;;;21.20;99.90;;;;;;4806674;29;20807;-81
2021/05/10 01:40:15;;;;;;;4.37;1.40;;;21.20;99.90;;;;;;4807849;29;20436;-82
2021/05/10 01:42:41;;;;;;;2.70;1.23;;;21.20;99.90;;;;;;4807052;29;20205;-83
2021/05/10 01:45:08;;;;;;;3.60;1.30;;;21.30;99.90;;;;;;4807483;29;20440;-82
2021/05/10 01:47:34;;;;;;;1.73;1.13;;;21.30;99.90;;;;;;4807860;29;20430;-81
2021/05/10 01:50:07;;;;;;;1.87;1.30;;;21.20;99.90;;;;;;4807536;29;20431;-81
2021/05/10 01:52:33;;;;;;;2.63;1.50;;;21.20;99.90;;;;;;4807577;29;20589;-82
2021/05/10 01:54:58;;;;;;;2.63;1.40;;;21.20;99.90;;;;;;4807454;29;20439;-82
2021/05/10 01:57:25;;;;;;;2.20;1.43;;;21.10;99.90;;;;;;4807498;29;20278;-81
2021/05/10 01:59:51;;;;;;;1.60;1.30;;;21.20;99.90;;;;;;4807694;29;20553;-81
2021/05/10 02:02:16;;;;;;;1.30;1.13;;;21.20;99.90;;;;;;4821522;29;20514;-81
2021/05/10 02:05:21;;;;;;;1.70;1.50;;;21.10;99.90;;;;;;4806997;29;20206;-83
2021/05/10 02:07:55;;;;;;;1.67;1.43;;;21.00;99.90;;;;;;4807475;29;20213;-81
2021/05/10 02:10:35;;;;;;;2.10;1.40;;;20.90;99.90;;;;;;4806183;29;20471;-81
2021/05/10 02:13:01;;;;;;;1.80;1.30;;;20.80;99.90;;;;;;4807409;29;20448;-81
2021/05/10 02:15:29;;;;;;;7.70;1.73;;;20.70;99.90;;;;;;4806239;29;20538;-82
2021/05/10 02:17:55;;;;;;;2.17;1.60;;;20.70;99.90;;;;;;4806149;29;20190;-82
2021/05/10 02:20:23;;;;;;;2.10;1.40;;;20.70;99.90;;;;;;4805962;29;20450;-82
2021/05/10 02:22:53;;;;;;;2.27;1.13;;;20.70;99.90;;;;;;4806853;29;21177;-81
2021/05/10 02:25:24;;;;;;;3.77;1.60;;;20.70;99.90;;;;;;4806821;29;20417;-82
2021/05/10 02:27:50;;;;;;;2.77;1.70;;;20.50;99.90;;;;;;4807310;29;20424;-83
2021/05/10 02:30:17;;;;;;;3.20;1.97;;;20.40;99.90;;;;;;4820807;29;20439;-83
2021/05/10 02:32:43;;;;;;;2.93;1.50;;;20.50;99.90;;;;;;4807154;29;20428;-81
2021/05/10 02:35:10;;;;;;;2.30;1.37;;;20.50;99.90;;;;;;4805920;29;20440;-81
2021/05/10 02:37:35;;;;;;;3.23;1.60;;;20.40;99.90;;;;;;4806855;29;20854;-81
2021/05/10 02:40:01;;;;;;;2.17;1.70;;;20.40;99.90;;;;;;4806740;29;20460;-82
2021/05/10 02:42:27;;;;;;;1.50;1.40;;;20.30;99.90;;;;;;4807114;29;20644;-84
2021/05/10 02:44:53;;;;;;;3.13;1.20;;;20.30;99.90;;;;;;4806325;29;20198;-83
2021/05/10 02:47:18;;;;;;;3.90;1.67;;;20.30;99.90;;;;;;4806005;29;20601;-81
2021/05/10 02:49:44;;;;;;;1.50;1.20;;;20.30;99.90;;;;;;4807023;29;20220;-82
2021/05/10 02:52:09;;;;;;;2.13;1.50;;;20.20;99.90;;;;;;4806517;29;20229;-81
2021/05/10 02:54:35;;;;;;;2.07;1.47;;;20.20;99.90;;;;;;4806252;29;20699;-82
2021/05/10 02:57:01;;;;;;;2.10;1.47;;;20.10;99.90;;;;;;4806386;29;20198;-82
2021/05/10 02:59:26;;;;;;;2.80;1.40;;;20.10;99.90;;;;;;4820705;29;20187;-83
2021/05/10 03:01:52;;;;;;;5.60;1.30;;;20.00;99.90;;;;;;4820749;29;20189;-82
2021/05/10 03:04:17;;;;;;;2.53;1.30;;;20.00;99.90;;;;;;4806193;29;20595;-81
2021/05/10 03:06:43;;;;;;;2.50;1.30;;;19.90;99.90;;;;;;4806539;29;20207;-81
2021/05/10 03:09:08;;;;;;;4.50;1.80;;;19.80;99.90;;;;;;4806522;29;20194;-82
2021/05/10 03:11:34;;;;;;;2.97;1.40;;;19.70;99.90;;;;;;4820644;29;20688;-82
2021/05/10 03:14:00;;;;;;;1.90;1.47;;;19.60;99.90;;;;;;4805125;29;20182;-84
2021/05/10 03:16:25;;;;;;;3.97;1.40;;;19.60;99.90;;;;;;4804789;29;20206;-82
2021/05/10 03:18:51;;;;;;;2.43;1.60;;;19.50;99.90;;;;;;4805564;29;20192;-82
2021/05/10 03:21:16;;;;;;;2.70;1.50;;;19.50;99.90;;;;;;4806227;29;20190;-82
2021/05/10 03:23:42;;;;;;;4.27;1.77;;;19.50;99.90;;;;;;4806318;29;20660;-82
2021/05/10 03:26:08;;;;;;;2.57;1.40;;;19.50;99.90;;;;;;4805669;29;20214;-82
2021/05/10 03:28:33;;;;;;;2.60;1.53;;;19.50;99.90;;;;;;4806226;29;20194;-82
2021/05/10 03:30:59;;;;;;;2.10;1.50;;;19.50;99.90;;;;;;4806015;29;20206;-82
2021/05/10 03:33:24;;;;;;;3.00;1.50;;;19.50;99.90;;;;;;4806068;29;20187;-83
2021/05/10 03:35:50;;;;;;;1.40;1.30;;;19.50;99.90;;;;;;4805736;29;20202;-84
2021/05/10 03:38:15;;;;;;;1.90;1.70;;;19.60;99.90;;;;;;4806169;29;20190;-81
2021/05/10 03:40:41;;;;;;;1.57;1.47;;;19.60;99.90;;;;;;4820318;29;20194;-83
2021/05/10 03:43:07;;;;;;;2.50;1.47;;;19.60;99.90;;;;;;4806256;29;20187;-80
2021/05/10 03:45:35;;;;;;;2.53;1.50;;;19.70;99.90;;;;;;4805528;29;20216;-81
2021/05/10 03:48:01;;;;;;;2.67;1.20;;;19.80;99.90;;;;;;4822621;29;20656;-81
2021/05/10 03:50:26;;;;;;;4.53;2.20;;;20.00;99.90;;;;;;4809854;29;20475;-81
2021/05/10 03:52:52;;;;;;;6.53;1.77;;;19.90;99.90;;;;;;4809018;29;20428;-81
2021/05/10 03:55:21;;;;;;;3.30;2.10;;;19.50;99.90;;;;;;4809215;29;20552;-81
2021/05/10 03:57:47;;;;;;;5.90;1.60;;;19.30;99.90;;;;;;4809557;29;20189;-81
2021/05/10 04:00:15;;;;;;;1.67;1.47;;;19.20;99.90;;;;;;4823260;29;20431;-81
2021/05/10 04:02:41;;;;;;;4.53;1.83;;;18.90;99.90;;;;;;4809414;29;20900;-80
2021/05/10 04:15:33;;;;;;;3.13;2.10;;;18.80;99.90;;;;;;4820912;29;20513;-80
2021/05/10 04:17:59;;;;;;;4.03;1.50;;;18.80;99.90;;;;;;4809370;29;20420;-82
2021/05/10 04:20:25;;;;;;;3.00;1.43;;;18.80;99.90;;;;;;4809377;29;20544;-81
2021/05/10 04:22:50;;;;;;;3.63;1.33;;;18.80;99.90;;;;;;4822375;29;20238;-82
2021/05/10 04:25:16;;;;;;;4.13;1.80;;;18.90;99.90;;;;;;4808949;29;20217;-81
2021/05/10 04:27:41;;;;;;;3.60;1.60;;;18.90;99.90;;;;;;4808962;29;20242;-81
2021/05/10 04:30:08;;;;;;;3.00;1.53;;;18.90;99.90;;;;;;4809032;29;20186;-81
2021/05/10 04:32:34;;;;;;;2.60;1.40;;;19.00;99.90;;;;;;4808951;29;20186;-81
2021/05/10 04:34:59;;;;;;;2.63;1.57;;;18.90;99.90;;;;;;4808639;29;20465;-81
2021/05/10 04:37:25;;;;;;;2.60;1.43;;;19.00;99.90;;;;;;4808697;29;20277;-82
2021/05/10 04:39:51;;;;;;;6.37;1.60;;;19.10;99.90;;;;;;4808891;29;20239;-81
2021/05/10 04:42:17;;;;;;;1.70;1.60;;;19.10;99.90;;;;;;4807587;29;20194;-81
2021/05/10 04:44:43;;;;;;;3.13;1.60;;;19.10;99.90;;;;;;4808606;29;20480;-81
2021/05/10 04:47:08;;;;;;;3.30;1.67;;;19.10;99.90;;;;;;4808866;29;20247;-80
2021/05/10 04:49:34;;;;;;;2.20;1.60;;;19.20;99.90;;;;;;4809219;29;20675;-82
2021/05/10 04:51:59;;;;;;;2.40;1.47;;;19.30;99.90;;;;;;4808753;29;20320;-81
2021/05/10 04:54:25;;;;;;;1.57;1.27;;;19.30;99.90;;;;;;4808480;29;20191;-81
2021/05/10 04:56:51;;;;;;;2.67;1.63;;;19.30;99.90;;;;;;4806758;29;20190;-82
2021/05/10 04:59:17;;;;;;;6.10;2.00;;;19.40;99.90;;;;;;4808269;29;20416;-81
2021/05/10 05:01:43;;;;;;;1.90;1.27;;;19.40;99.90;;;;;;4808451;29;20186;-81
2021/05/10 05:04:09;;;;;;;3.10;1.27;;;19.30;99.90;;;;;;4808207;29;20194;-82
2021/05/10 05:06:34;;;;;;;3.40;1.60;;;19.30;99.90;;;;;;4808446;29;20422;-81
2021/05/10 05:09:00;;;;;;;3.83;1.17;;;19.30;99.90;;;;;;4808542;29;20428;-82
2021/05/10 05:11:26;;;;;;;3.23;1.73;;;19.20;99.90;;;;;;4808451;29;20220;-81
2021/05/10 05:13:51;;;;;;;1.80;1.53;;;19.30;99.90;;;;;;4808360;29;20190;-81
2021/05/10 05:16:17;;;;;;;2.23;1.43;;;19.40;99.90;;;;;;4807891;29;20214;-81
2021/05/10 05:18:43;;;;;;;1.40;1.17;;;19.30;99.90;;;;;;4808681;29;20283;-81
2021/05/10 05:21:08;;;;;;;2.40;1.43;;;19.30;99.90;;;;;;4808360;29;20544;-80
2021/05/10 05:23:34;;;;;;;2.90;1.27;;;19.40;99.90;;;;;;4806979;29;20205;-81
2021/05/10 05:26:03;;;;;;;5.77;1.60;;;19.40;99.90;;;;;;4807717;29;20206;-80
2021/05/10 05:28:29;;;;;;;3.67;1.63;;;19.40;99.90;;;;;;4807334;29;21014;-83
2021/05/10 05:30:56;;;;;;;3.97;1.87;;;19.50;99.90;;;;;;4821812;29;20483;-82
2021/05/10 05:33:23;;;;;;;3.83;1.93;;;19.50;99.90;;;;;;4807981;29;21062;-81
2021/05/10 05:35:49;;;;;;;3.20;2.23;;;19.60;99.90;;;;;;4807581;29;20593;-80
2021/05/10 05:38:14;;;;;;;3.10;1.53;;;19.60;99.90;;;;;;4807504;29;20510;-82
2021/05/10 05:40:42;;;;;;;2.57;1.67;;;19.50;99.90;;;;;;4822050;29;20435;-81
2021/05/10 05:43:09;;;;;;;6.10;1.47;;;19.50;99.90;;;;;;4807810;29;20186;-82
2021/05/10 05:45:36;;;;;;;3.97;1.83;;;19.60;99.90;;;;;;4807392;29;20444;-82
2021/05/10 05:48:10;;;;;;;3.07;1.80;;;19.50;99.90;;;;;;4807633;29;20426;-82
2021/05/10 05:50:36;;;;;;;3.40;1.80;;;19.50;99.90;;;;;;4806618;29;20547;-82
2021/05/10 05:53:02;;;;;;;4.13;1.67;;;19.40;99.90;;;;;;4807756;29;20459;-82
2021/05/10 05:55:28;;;;;;;3.53;1.57;;;19.40;99.90;;;;;;4807294;29;20487;-81
2021/05/10 05:57:54;;;;;;;1.97;1.60;;;19.40;99.90;;;;;;4807608;29;20957;-81
2021/05/10 06:00:20;;;;;;;2.37;1.50;;;19.40;99.90;;;;;;4806517;29;20197;-81
2021/05/10 06:02:46;;;;;;;4.33;1.73;;;19.40;99.90;;;;;;4807640;29;20424;-82
2021/05/10 06:05:13;;;;;;;4.60;1.63;;;19.40;99.90;;;;;;4807253;29;20443;-78
2021/05/10 06:07:43;;;;;;;2.30;1.70;;;19.40;99.90;;;;;;4807691;29;20769;-79
2021/05/10 06:10:11;;;;;;;2.30;1.67;;;19.30;99.90;;;;;;4806506;29;20438;-80
2021/05/10 06:12:38;;;;;;;2.73;1.63;;;19.30;99.90;;;;;;4807217;29;20535;-80
2021/05/10 06:15:05;;;;;;;2.00;1.70;;;19.40;99.90;;;;;;4806847;29;20448;-80
2021/05/10 06:17:31;;;;;;;1.57;1.47;;;19.40;99.90;;;;;;4807107;29;20980;-80
2021/05/10 06:19:57;;;;;;;5.17;2.23;;;19.40;99.90;;;;;;4806896;29;20528;-79
2021/05/10 06:22:22;;;;;;;3.10;1.30;;;19.40;99.90;;;;;;4805830;29;20229;-80
2021/05/10 06:24:48;;;;;;;5.53;1.63;;;19.50;99.90;;;;;;4805541;29;20210;-80
2021/05/10 06:27:14;;;;;;;3.37;1.70;;;19.60;99.90;;;;;;4806996;29;20194;-81
2021/05/10 06:29:40;;;;;;;3.77;1.83;;;19.70;99.90;;;;;;4807091;29;20527;-79
2021/05/10 06:32:06;;;;;;;3.90;1.47;;;19.80;99.90;;;;;;4806300;29;20218;-80
2021/05/10 06:34:31;;;;;;;3.93;1.50;;;19.90;99.90;;;;;;4806687;29;20704;-79
2021/05/10 06:36:57;;;;;;;2.47;1.10;;;20.00;99.90;;;;;;4806671;29;20194;-80
2021/05/10 06:39:24;;;;;;;3.47;1.47;;;20.20;99.90;;;;;;4806761;29;20185;-79
2021/05/10 06:41:50;;;;;;;4.10;1.97;;;20.30;99.90;;;;;;4806822;29;20191;-78
2021/05/10 06:44:15;;;;;;;2.13;1.40;;;20.40;99.90;;;;;;4806446;29;20431;-79
2021/05/10 06:46:41;;;;;;;6.70;1.80;;;20.50;99.90;;;;;;4806588;29;20269;-80
2021/05/10 06:49:07;;;;;;;1.97;1.50;;;20.50;99.90;;;;;;4806678;29;20199;-78
2021/05/10 06:51:33;;;;;;;2.33;1.30;;;20.50;99.90;;;;;;4806465;29;20341;-78
2021/05/10 06:53:58;;;;;;;2.90;1.40;;;20.60;99.90;;;;;;4806826;29;20206;-79
2021/05/10 06:56:24;;;;;;;2.47;1.17;;;20.40;99.90;;;;;;4806485;29;20932;-79
2021/05/10 06:58:50;;;;;;;1.67;1.10;;;20.50;99.90;;;;;;4806443;29;20202;-80
2021/05/10 07:01:16;;;;;;;1.73;1.23;;;20.70;99.90;;;;;;4806679;29;20202;-79
2021/05/10 07:03:41;;;;;;;1.20;1.10;;;20.80;99.90;;;;;;4805736;29;20435;-79
2021/05/10 07:06:07;;;;;;;2.50;1.00;;;20.80;99.90;;;;;;4806171;29;20210;-79
2021/05/10 07:08:33;;;;;;;2.70;1.00;;;20.90;99.90;;;;;;4806353;29;20229;-79
2021/05/10 07:10:58;;;;;;;3.37;0.90;;;20.90;99.90;;;;;;4806168;29;20296;-79
2021/05/10 07:13:24;;;;;;;1.17;0.90;;;21.00;99.90;;;;;;4806539;29;20213;-78
2021/05/10 07:15:50;;;;;;;1.53;0.90;;;20.90;99.90;;;;;;4805004;29;20210;-78
2021/05/10 07:18:16;;;;;;;1.77;0.70;;;20.90;99.90;;;;;;4806305;29;20640;-78
2021/05/10 07:20:43;;;;;;;2.93;0.90;;;20.80;99.90;;;;;;4806132;29;20273;-79
2021/05/10 07:23:10;;;;;;;1.40;1.00;;;20.70;99.90;;;;;;4805814;29;20515;-79
2021/05/10 07:25:43;;;;;;;1.63;1.00;;;20.70;99.90;;;;;;4805861;29;20459;-79
2021/05/10 07:28:10;;;;;;;1.67;1.00;;;20.60;99.90;;;;;;4806243;29;20774;-80
2021/05/10 07:30:37;;;;;;;3.43;0.87;;;20.50;99.90;;;;;;4805979;29;20471;-80
2021/05/10 07:33:03;;;;;;;1.93;0.70;;;20.40;99.90;;;;;;4805981;29;20436;-77
2021/05/10 07:35:29;;;;;;;1.20;1.00;;;20.30;99.90;;;;;;4804982;29;20436;-78
2021/05/10 07:37:55;;;;;;;0.70;0.60;;;20.30;99.90;;;;;;4806070;29;20541;-78
2021/05/10 07:40:23;;;;;;;4.27;0.80;;;20.10;99.90;;;;;;4820331;29;20430;-78
2021/05/10 07:42:49;;;;;;;1.20;0.70;;;20.00;99.90;;;;;;4806126;29;20186;-79
2021/05/10 07:45:15;;;;;;;0.90;0.70;;;19.80;99.90;;;;;;4819764;29;20426;-79
2021/05/10 07:47:40;;;;;;;2.33;1.00;;;19.70;99.90;;;;;;4806167;29;20966;-79
2021/05/10 07:50:06;;;;;;;2.10;0.77;;;19.50;99.90;;;;;;4804809;29;20194;-79
2021/05/10 07:52:32;;;;;;;2.97;0.90;;;19.50;99.90;;;;;;4805966;29;20241;-79
2021/05/10 07:54:58;;;;;;;1.20;0.80;;;19.40;99.90;;;;;;4805432;29;20772;-79
2021/05/10 07:57:25;;;;;;;1.53;0.90;;;19.40;99.90;;;;;;4805658;29;20459;-79
2021/05/10 07:59:51;;;;;;;0.90;0.80;;;19.30;99.90;;;;;;4805871;29;20269;-80
2021/05/10 08:02:19;;;;;;;1.97;1.07;;;19.30;99.90;;;;;;4805879;29;20968;-79
2021/05/10 08:04:45;;;;;;;1.00;0.80;;;19.20;99.90;;;;;;4805584;29;20441;-79
2021/05/10 08:07:12;;;;;;;1.60;0.90;;;19.20;99.90;;;;;;4805643;29;20434;-79
2021/05/10 08:09:39;;;;;;;2.13;1.00;;;19.10;99.90;;;;;;4805426;29;20447;-79
2021/05/10 08:12:06;;;;;;;1.53;0.87;;;19.10;99.90;;;;;;4805773;29;20486;-79
2021/05/10 08:14:32;;;;;;;2.87;0.80;;;19.20;99.90;;;;;;4805384;29;20484;-79
2021/05/10 08:16:59;;;;;;;1.80;0.80;;;19.10;99.90;;;;;;4819673;29;20420;-79
2021/05/10 08:19:26;;;;;;;1.27;0.73;;;18.90;99.90;;;;;;4805643;29;20187;-79
2021/05/10 08:21:53;;;;;;;0.90;0.70;;;18.90;99.90;;;;;;4819817;29;20778;-79
2021/05/10 08:24:18;;;;;;;1.30;0.70;;;18.90;99.90;;;;;;4805227;29;20402;-80
2021/05/10 08:26:44;;;;;;;1.20;0.80;;;18.80;99.90;;;;;;4805506;29;20450;-79
2021/05/10 08:29:10;;;;;;;1.30;0.90;;;18.80;99.90;;;;;;4805557;29;20187;-79
2021/05/10 08:31:35;;;;;;;1.40;1.10;;;18.80;99.90;;;;;;4805633;29;20683;-79
2021/05/10 08:34:01;;;;;;;1.63;1.00;;;18.80;99.90;;;;;;4806565;29;20190;-79
2021/05/10 08:36:26;;;;;;;1.10;0.70;;;18.80;99.90;;;;;;4808566;29;20547;-79
2021/05/10 08:38:54;;;;;;;1.53;1.13;;;19.10;99.90;;;;;;4808972;29;20237;-80
2021/05/10 08:41:20;;;;;;;1.30;0.77;;;19.20;99.90;;;;;;4808013;29;20219;-80
2021/05/10 08:43:45;;;;;;;1.27;0.60;;;19.40;99.90;;;;;;4809003;29;20424;-79
2021/05/10 08:46:11;;;;;;;1.17;0.70;;;19.40;99.90;;;;;;4808455;29;20202;-79
2021/05/10 08:48:37;;;;;;;0.90;0.60;;;19.30;99.90;;;;;;4808910;29;20190;-79
2021/05/10 08:51:03;;;;;;;1.23;1.03;;;19.20;99.90;;;;;;4808721;29;20211;-79
2021/05/10 08:53:37;;;;;;;1.50;0.77;;;19.20;99.90;;;;;;4808732;29;20187;-79
2021/05/10 08:56:04;;;;;;;2.27;0.90;;;19.20;99.90;;;;;;4808289;29;20414;-80
2021/05/10 08:58:45;;;;;;;0.90;0.60;;;19.10;99.90;;;;;;4808533;29;20439;-80
2021/05/10 09:01:12;;;;;;;4.50;0.80;;;19.20;99.90;;;;;;4808626;29;20520;-81
2021/05/10 09:03:44;;;;;;;2.20;0.60;;;19.40;99.90;;;;;;4808218;29;20432;-78
2021/05/10 09:06:12;;;;;;;0.90;0.70;;;19.40;99.90;;;;;;4808003;29;20450;-80
2021/05/10 09:08:40;;;;;;;1.83;0.70;;;19.40;99.90;;;;;;4808370;29;20523;-79
2021/05/10 09:11:10;;;;;;;2.23;0.80;;;19.40;99.90;;;;;;4808044;29;20471;-80
2021/05/10 09:13:39;;;;;;;1.10;0.60;;;19.60;99.90;;;;;;4807670;29;20440;-80
2021/05/10 09:16:05;;;;;;;3.77;1.07;;;19.80;99.90;;;;;;4807885;29;20515;-80
2021/05/10 09:18:32;;;;;;;2.03;0.70;;;19.70;99.90;;;;;;4808327;29;20431;-80
2021/05/10 09:21:12;;;;;;;1.10;0.87;;;19.70;99.90;;;;;;4808105;29;20461;-80
2021/05/10 09:23:39;;;;;;;1.30;0.60;;;19.70;99.90;;;;;;4807698;29;20424;-80
2021/05/10 09:26:05;;;;;;;0.70;0.60;;;19.80;99.90;;;;;;4807613;29;20448;-80
2021/05/10 09:28:44;;;;;;;0.80;0.60;;;20.00;99.90;;;;;;4807909;29;20905;-79
2021/05/10 09:31:13;;;;;;;0.93;0.60;;;20.10;99.90;;;;;;4807917;29;20300;-79
2021/05/10 09:33:46;;;;;;;1.70;0.67;;;20.10;99.90;;;;;;4807796;29;20431;-80
2021/05/10 09:36:30;;;;;;;0.70;0.60;;;19.90;99.90;;;;;;4806267;29;20486;-80
2021/05/10 09:38:56;;;;;;;0.83;0.60;;;20.00;99.90;;;;;;4806808;29;21234;-80
2021/05/10 09:41:22;;;;;;;1.00;0.60;;;19.90;99.90;;;;;;4808048;29;20424;-80
2021/05/10 09:44:00;;;;;;;3.63;0.60;;;19.90;99.90;;;;;;4806736;29;20802;-81
2021/05/10 09:46:46;;;;;;;1.43;0.53;;;19.80;99.90;;;;;;4805828;29;20297;-81
2021/05/10 09:49:12;;;;;;;0.83;0.60;;;19.90;99.90;;;;;;4807559;29;20794;-81
2021/05/10 09:51:38;;;;;;;1.40;0.67;;;20.00;99.90;;;;;;4807592;29;20475;-81
2021/05/10 09:54:13;;;;;;;1.27;0.70;;;19.90;99.90;;;;;;4807265;29;20477;-80
2021/05/10 09:56:39;;;;;;;1.70;0.60;;;19.80;99.90;;;;;;4807374;29;20790;-79
2021/05/10 09:59:17;;;;;;;2.40;0.70;;;19.80;99.90;;;;;;4807455;29;20423;-80
2021/05/10 10:01:45;;;;;;;1.00;0.70;;;19.50;99.90;;;;;;4807726;29;20815;-80
2021/05/10 10:04:12;;;;;;;1.10;0.70;;;19.20;99.90;;;;;;4807178;29;20937;-80
2021/05/10 10:06:38;;;;;;;1.03;0.77;;;19.50;99.90;;;;;;4806124;29;20995;-80
2021/05/10 10:09:05;;;;;;;0.97;0.80;;;19.80;99.90;;;;;;4807296;29;20424;-81
2021/05/10 10:11:31;;;;;;;1.50;0.80;;;20.00;99.90;;;;;;4821262;29;20259;-80
2021/05/10 10:13:58;;;;;;;0.80;0.80;;;19.80;99.90;;;;;;4807058;29;20918;-80
2021/05/10 10:16:26;;;;;;;0.90;0.80;;;19.90;99.90;;;;;;4806290;29;20682;-80
2021/05/10 10:18:52;;;;;;;0.90;0.80;;;19.70;99.90;;;;;;4807235;29;20516;-78
2021/05/10 10:21:20;;;;;;;1.00;0.60;;;19.70;99.90;;;;;;4806657;29;20434;-79
2021/05/10 10:24:02;;;;;;;2.33;0.97;;;19.80;99.90;;;;;;4804069;29;20447;-80
2021/05/10 10:26:29;;;;;;;1.83;0.90;;;19.80;99.90;;;;;;4802106;29;20450;-81
2021/05/10 10:29:23;;;;;;;3.23;1.13;;;19.80;99.90;;;;;;4806884;29;20511;-79
2021/05/10 10:31:51;;;;;;;1.30;0.87;;;19.90;99.90;;;;;;4808501;29;20840;-81
2021/05/10 10:34:20;;;;;;;1.20;0.90;;;19.80;99.90;;;;;;4806562;29;20419;-81
2021/05/10 10:36:54;;;;;;;2.70;1.10;;;19.80;99.90;;;;;;4806703;29;20411;-80
2021/05/10 10:39:23;;;;;;;1.57;0.90;;;19.70;99.90;;;;;;4806791;29;20436;-80
2021/05/10 10:41:58;;;;;;;1.20;0.87;;;19.40;99.90;;;;;;4806729;29;20446;-79
2021/05/10 10:44:38;;;;;;;2.03;0.80;;;19.50;99.90;;;;;;4806234;29;20412;-79
2021/05/10 10:47:05;;;;;;;2.80;1.43;;;19.40;99.90;;;;;;4806620;29;21336;-80
2021/05/10 10:49:38;;;;;;;5.50;1.03;;;19.60;99.90;;;;;;4806139;29;20439;-80
2021/05/10 10:52:16;;;;;;;3.33;0.80;;;20.00;99.90;;;;;;4804878;29;20475;-79
2021/05/10 10:54:42;;;;;;;1.60;1.03;;;20.20;99.90;;;;;;4833346;29;20439;-80
2021/05/10 10:57:08;;;;;;;1.40;0.80;;;20.20;99.90;;;;;;4805977;29;20539;-81
2021/05/10 10:59:37;;;;;;;2.07;0.90;;;20.40;99.90;;;;;;4806397;29;20178;-79
2021/05/10 11:02:18;;;;;;;1.57;0.70;;;20.40;99.90;;;;;;4806448;29;20428;-80
2021/05/10 11:04:44;;;;;;;1.00;0.90;;;20.70;99.90;;;;;;4806049;29;20534;-81
2021/05/10 11:07:10;;;;;;;1.40;1.10;;;20.70;99.90;;;;;;4806374;29;20428;-80
2021/05/10 11:09:49;;;;;;;4.10;0.90;;;20.50;99.90;;;;;;4806361;29;20420;-80
2021/05/10 11:12:45;;;;;;;1.20;0.80;;;20.90;99.90;;;;;;4806076;29;20979;-80
2021/05/10 11:15:12;;;;;;;4.10;0.97;;;20.90;99.90;;;;;;4805797;29;21052;-80
2021/05/10 11:17:53;;;;;;;1.27;0.90;;;21.30;99.90;;;;;;4806484;29;20423;-80
2021/05/10 11:20:35;;;;;;;0.97;0.70;;;21.80;99.90;;;;;;4804776;29;21161;-80
2021/05/10 11:23:21;;;;;;;1.43;0.93;;;22.00;99.90;;;;;;4806527;29;20527;-80
2021/05/10 11:25:47;;;;;;;1.00;0.90;;;22.20;99.90;;;;;;4805878;29;21029;-81
2021/05/10 11:28:40;;;;;;;1.57;0.90;;;22.10;99.90;;;;;;4806354;29;20499;-80
2021/05/10 11:31:11;;;;;;;1.50;0.87;;;21.50;99.90;;;;;;4805760;29;21041;-81
2021/05/10 11:33:51;;;;;;;2.07;1.00;;;21.40;99.90;;;;;;4804821;29;20483;-81
2021/05/10 11:36:24;;;;;;;0.93;0.83;;;21.20;99.90;;;;;;4835003;29;20887;-81
2021/05/10 11:38:58;;;;;;;2.50;1.00;;;21.30;99.90;;;;;;4805683;29;20427;-81
2021/05/10 11:41:44;;;;;;;1.67;1.07;;;21.70;99.90;;;;;;4805943;29;20454;-81
2021/05/10 11:44:22;;;;;;;2.60;0.90;;;21.40;99.90;;;;;;4805700;29;20933;-80
2021/05/10 11:46:52;;;;;;;3.03;1.10;;;21.20;99.90;;;;;;4806207;29;20897;-81
2021/05/10 11:49:27;;;;;;;2.60;0.90;;;21.50;99.90;;;;;;4806303;29;20491;-81
2021/05/10 11:51:54;;;;;;;1.47;1.10;;;21.60;99.90;;;;;;4805925;29;20867;-81
2021/05/10 11:54:22;;;;;;;1.70;0.93;;;21.70;99.90;;;;;;4805655;29;20424;-81
2021/05/10 11:56:49;;;;;;;1.13;0.87;;;21.80;99.90;;;;;;4804703;29;20424;-81
2021/05/10 12:01:50;;;;;;;2.40;1.10;;;21.50;99.90;;;;;;4805836;29;20407;-80
2021/05/10 12:04:29;;;;;;;7.47;2.20;;;20.90;99.90;;;;;;4805613;29;20424;-79
2021/05/10 12:06:56;;;;;;;6.80;1.43;;;19.00;99.90;;;;;;4805922;29;20415;-80
2021/05/10 12:09:42;;;;;;;8.60;1.77;;;17.90;99.90;;;;;;4809103;29;20518;-79
2021/05/10 12:12:13;;;;;;;3.90;1.83;;;17.30;99.90;;;;;;4809672;29;20463;-80
2021/05/10 12:14:40;;;;;;;2.40;1.20;;;17.20;99.90;;;;;;4808836;29;20406;-82
2021/05/10 12:17:10;;;;;;;3.07;1.03;;;17.20;99.90;;;;;;4809229;29;20477;-81
2021/05/10 12:19:57;;;;;;;3.20;1.13;;;17.20;99.90;;;;;;4809513;29;20399;-78
2021/05/10 12:22:38;;;;;;;3.90;1.10;;;17.10;99.90;;;;;;4809072;29;20428;-79
2021/05/10 12:25:08;;;;;;;7.60;1.10;;;17.00;99.90;;;;;;4808749;29;20807;-78
2021/05/10 12:27:48;;;;;;;6.43;1.27;;;16.70;99.90;;;;;;4809073;29;20401;-80
2021/05/10 12:30:24;;;;;;;3.53;0.93;;;16.70;99.90;;;;;;4808968;29;20419;-79
2021/05/10 12:32:54;;;;;;;5.63;1.80;;;16.50;99.90;;;;;;4808868;29;20740;-79
2021/05/10 12:35:24;;;;;;;2.80;1.10;;;16.50;99.90;;;;;;4808459;29;20841;-79
2021/05/10 12:37:52;;;;;;;4.90;1.67;;;16.70;99.90;;;;;;4808829;29;20503;-81
2021/05/10 12:40:24;;;;;;;3.53;1.77;;;16.70;99.90;;;;;;4837714;29;20437;-79
2021/05/10 12:43:07;;;;;;;6.87;1.40;;;16.70;99.90;;;;;;4808779;29;20397;-80
2021/05/10 12:45:35;;;;;;;3.30;1.23;;;16.80;99.90;;;;;;4808602;29;20446;-79
2021/05/10 12:48:20;;;;;;;3.07;1.30;;;16.60;99.90;;;;;;4808866;29;20806;-79
2021/05/10 12:50:51;;;;;;;3.07;1.17;;;16.70;99.90;;;;;;4807206;29;20546;-79
2021/05/10 12:53:36;;;;;;;7.03;1.43;;;16.90;99.90;;;;;;4808815;29;20804;-80
2021/05/10 12:56:06;;;;;;;5.43;1.30;;;16.90;99.90;;;;;;4808320;29;20466;-80
2021/05/10 12:58:34;;;;;;;6.80;1.47;;;16.70;99.90;;;;;;4808448;29;20436;-78
2021/05/10 13:01:13;;;;;;;3.57;1.50;;;16.90;99.90;;;;;;4808410;29;20786;-79
2021/05/10 13:03:40;;;;;;;2.87;1.10;;;17.00;99.90;;;;;;4808685;29;20495;-79
2021/05/10 13:06:06;;;;;;;5.03;1.30;;;17.10;99.90;;;;;;4808077;29;20497;-79
2021/05/10 13:08:43;;;;;;;8.20;1.70;;;17.10;99.90;;;;;;4808565;29;20846;-79